Time,TemperatureF,DewpointF,PressureIn,WindDirection,WindDirectionDegrees,WindSpeedMPH,WindSpeedGustMPH,Humidity,HourlyPrecipIn,Conditions,Clouds,dailyrainin,SolarRadiationWatts/m^2,SoftwareType,DateUTC
2013-05-26 00:01:00,55.0,50.0,30.01,ENE,71,3.0,4.0,84,-99.99,,,0.00,0.000000,,2013-05-26 07:01:00,
2013-05-26 00:11:00,55.0,50.0,30.01,ENE,71,3.0,4.0,84,-99.99,,,0.00,0.000000,,2013-05-26 07:11:00,
2013-05-26 00:31:00,54.0,49.0,30.00,ENE,71,3.0,5.0,84,-99.99,,,0.00,0.000000,,2013-05-26 07:31:00,
2013-05-26 00:42:00,54.0,49.0,30.00,ENE,71,3.0,5.0,84,-99.99,,,0.00,0.000000,,2013-05-26 07:42:00,
2013-05-26 00:52:00,54.0,49.0,30.00,ENE,71,3.0,5.0,84,-99.99,,,0.00,0.000000,,2013-05-26 07:52:00,
2013-05-26 01:01:00,54.0,49.0,30.00,ENE,71,3.0,5.0,84,-99.99,,,0.00,0.000000,,2013-05-26 08:01:00,
2013-05-26 01:11:00,54.0,49.0,30.00,ENE,71,3.0,5.0,84,-99.99,,,0.00,0.000000,,2013-05-26 08:11:00,
2013-05-26 01:32:00,54.0,50.0,29.99,ENE,76,3.0,4.0,86,-99.99,,,0.00,0.000000,,2013-05-26 08:32:00,
2013-05-26 01:42:00,54.0,50.0,29.99,ENE,76,3.0,4.0,86,-99.99,,,0.00,0.000000,,2013-05-26 08:42:00,
2013-05-26 01:53:00,54.0,50.0,29.99,ENE,76,3.0,4.0,86,-99.99,,,0.00,0.000000,,2013-05-26 08:53:00,
2013-05-26 02:01:00,54.0,50.0,29.99,ENE,76,3.0,4.0,86,-99.99,,,0.00,0.000000,,2013-05-26 09:01:00,
2013-05-26 02:11:00,54.0,50.0,29.99,ENE,76,3.0,4.0,86,-99.99,,,0.00,0.000000,,2013-05-26 09:11:00,
2013-05-26 02:33:00,53.0,52.0,30.02,WSW,241,3.0,7.0,93,-99.99,,,-99.99,0.120000,,2013-05-26 09:33:00,
2013-05-26 02:42:00,53.0,52.0,30.02,WSW,241,3.0,7.0,93,-99.99,,,-99.99,0.120000,,2013-05-26 09:42:00,
2013-05-26 02:53:00,53.0,52.0,30.02,WSW,241,3.0,7.0,93,-99.99,,,-99.99,0.120000,,2013-05-26 09:53:00,
2013-05-26 03:02:00,53.0,52.0,-100.00,WSW,241,3.0,7.0,93,-99.99,,,-99.99,0.120000,,2013-05-26 10:02:00,
2013-05-26 03:12:00,53.0,52.0,30.02,WSW,241,3.0,7.0,93,-99.99,,,-99.99,0.120000,,2013-05-26 10:12:00,
2013-05-26 03:32:00,53.0,52.0,30.03,South,171,2.0,5.0,95,-99.99,,,0.01,0.120000,,2013-05-26 10:32:00,
2013-05-26 03:42:00,53.0,52.0,30.03,South,171,2.0,5.0,95,-99.99,,,0.01,0.120000,,2013-05-26 10:42:00,
2013-05-26 03:52:00,53.0,52.0,30.03,South,171,2.0,5.0,95,-99.99,,,0.01,0.120000,,2013-05-26 10:52:00,
2013-05-26 04:02:00,53.0,52.0,30.03,South,171,2.0,5.0,95,-99.99,,,0.01,0.120000,,2013-05-26 11:02:00,
2013-05-26 04:11:00,53.0,52.0,30.03,South,171,2.0,5.0,95,-99.99,,,0.01,0.120000,,2013-05-26 11:11:00,
2013-05-26 04:32:00,53.0,52.0,30.03,ENE,57,1.0,2.0,95,-99.99,,,0.01,0.120000,,2013-05-26 11:32:00,
2013-05-26 04:42:00,53.0,52.0,30.03,ENE,57,1.0,2.0,95,-99.99,,,0.01,0.120000,,2013-05-26 11:42:00,
2013-05-26 04:52:00,53.0,52.0,30.03,ENE,57,1.0,2.0,95,-99.99,,,0.01,0.120000,,2013-05-26 11:52:00,
2013-05-26 05:01:00,53.0,52.0,30.03,ENE,57,1.0,2.0,95,-99.99,,,0.01,0.120000,,2013-05-26 12:01:00,
2013-05-26 05:11:00,53.0,52.0,30.03,ENE,57,1.0,2.0,95,-99.99,,,0.01,0.120000,,2013-05-26 12:11:00,
2013-05-26 05:32:00,53.0,52.0,30.02,ENE,65,3.0,5.0,96,-99.99,,,0.01,0.230000,,2013-05-26 12:32:00,
2013-05-26 05:42:00,53.0,52.0,30.02,ENE,65,3.0,5.0,96,-99.99,,,0.01,0.230000,,2013-05-26 12:42:00,
2013-05-26 05:52:00,53.0,52.0,30.02,ENE,65,3.0,5.0,96,-99.99,,,0.01,0.230000,,2013-05-26 12:52:00,
2013-05-26 06:02:00,53.0,52.0,30.02,ENE,65,3.0,5.0,96,-99.99,,,0.01,0.230000,,2013-05-26 13:02:00,
2013-05-26 06:11:00,53.0,52.0,30.02,ENE,65,3.0,5.0,96,-99.99,,,0.01,0.230000,,2013-05-26 13:11:00,
2013-05-26 06:42:00,53.0,52.0,30.03,WNW,293,0.0,1.0,96,-99.99,,,-99.99,12.090000,,2013-05-26 13:42:00,
2013-05-26 06:52:00,53.0,52.0,30.03,WNW,293,0.0,1.0,96,-99.99,,,-99.99,12.090000,,2013-05-26 13:52:00,
2013-05-26 07:01:00,53.0,52.0,30.03,WNW,293,0.0,1.0,96,-99.99,,,-99.99,12.090000,,2013-05-26 14:01:00,
2013-05-26 07:11:00,53.0,52.0,30.03,WNW,293,0.0,1.0,96,-99.99,,,-99.99,12.090000,,2013-05-26 14:11:00,
2013-05-26 07:41:00,53.0,52.0,30.04,South,173,1.0,2.0,96,-99.99,,,0.01,28.010000,,2013-05-26 14:41:00,
2013-05-26 07:52:00,53.0,52.0,30.04,South,173,1.0,2.0,96,-99.99,,,0.01,28.010000,,2013-05-26 14:52:00,
2013-05-26 08:01:00,53.0,52.0,30.04,South,173,1.0,2.0,96,-99.99,,,0.01,28.010000,,2013-05-26 15:01:00,
2013-05-26 08:11:00,53.0,52.0,30.04,South,173,1.0,2.0,96,-99.99,,,0.01,28.010000,,2013-05-26 15:11:00,
2013-05-26 08:33:00,54.0,53.0,30.05,East,87,1.0,2.0,96,-99.99,,,0.01,97.160004,,2013-05-26 15:33:00,
2013-05-26 08:43:00,54.0,53.0,30.05,East,87,1.0,2.0,96,-99.99,,,0.01,97.160004,,2013-05-26 15:43:00,
2013-05-26 08:53:00,54.0,53.0,30.05,East,87,1.0,2.0,96,-99.99,,,0.01,97.160004,,2013-05-26 15:53:00,
2013-05-26 09:03:00,54.0,53.0,30.05,East,87,1.0,2.0,96,-99.99,,,0.01,97.160004,,2013-05-26 16:03:00,
2013-05-26 09:12:00,54.0,53.0,30.05,East,87,1.0,2.0,96,-99.99,,,0.01,97.160004,,2013-05-26 16:12:00,
2013-05-26 09:33:00,56.0,53.0,30.06,WSW,246,4.0,9.0,89,-99.99,,,0.01,235.929993,,2013-05-26 16:33:00,
2013-05-26 09:42:00,56.0,53.0,30.06,WSW,246,4.0,9.0,89,-99.99,,,0.01,235.929993,,2013-05-26 16:42:00,
2013-05-26 09:53:00,56.0,53.0,30.06,WSW,246,4.0,9.0,89,-99.99,,,0.01,235.929993,,2013-05-26 16:53:00,
2013-05-26 10:02:00,56.0,53.0,30.06,WSW,246,4.0,9.0,89,-99.99,,,0.01,235.929993,,2013-05-26 17:02:00,
2013-05-26 10:11:00,56.0,53.0,30.06,WSW,246,4.0,9.0,89,-99.99,,,0.01,235.929993,,2013-05-26 17:11:00,
2013-05-26 10:42:00,58.0,54.0,30.07,WSW,253,5.0,10.0,84,-99.99,,,0.01,315.190002,,2013-05-26 17:42:00,
2013-05-26 10:52:00,58.0,54.0,30.07,WSW,253,5.0,10.0,84,-99.99,,,0.01,315.190002,,2013-05-26 17:52:00,
2013-05-26 11:01:00,58.0,54.0,30.07,WSW,253,5.0,10.0,84,-99.99,,,0.01,315.190002,,2013-05-26 18:01:00,
2013-05-26 11:12:00,58.0,54.0,30.07,WSW,253,5.0,10.0,84,-99.99,,,0.01,315.190002,,2013-05-26 18:12:00,
2013-05-26 11:31:00,58.0,53.0,30.07,WSW,243,4.0,9.0,84,-99.99,,,0.01,486.850006,,2013-05-26 18:31:00,
2013-05-26 11:42:00,58.0,53.0,30.07,WSW,243,4.0,9.0,84,-99.99,,,0.01,486.850006,,2013-05-26 18:42:00,
2013-05-26 11:52:00,58.0,53.0,30.07,WSW,243,4.0,9.0,84,-99.99,,,0.01,486.850006,,2013-05-26 18:52:00,
2013-05-26 12:01:00,58.0,53.0,30.07,WSW,243,4.0,9.0,84,-99.99,,,0.01,486.850006,,2013-05-26 19:01:00,
2013-05-26 12:11:00,58.0,53.0,30.07,WSW,243,4.0,9.0,84,-99.99,,,0.01,486.850006,,2013-05-26 19:11:00,
2013-05-26 12:32:00,59.0,54.0,30.07,SW,234,4.0,9.0,85,-99.99,,,0.01,679.539978,,2013-05-26 19:32:00,
2013-05-26 12:42:00,59.0,54.0,30.07,SW,234,4.0,9.0,85,-99.99,,,0.01,679.539978,,2013-05-26 19:42:00,
2013-05-26 12:52:00,59.0,54.0,30.07,SW,234,4.0,9.0,85,-99.99,,,0.01,679.539978,,2013-05-26 19:52:00,
2013-05-26 13:02:00,59.0,54.0,30.07,SW,234,4.0,9.0,85,-99.99,,,0.01,679.539978,,2013-05-26 20:02:00,
2013-05-26 13:11:00,59.0,54.0,30.07,SW,234,4.0,9.0,85,-99.99,,,0.01,679.539978,,2013-05-26 20:11:00,
2013-05-26 13:32:00,62.0,53.0,30.07,WSW,246,5.0,13.0,72,-99.99,,,0.01,504.390015,,2013-05-26 20:32:00,
2013-05-26 13:41:00,62.0,53.0,30.07,WSW,246,5.0,13.0,72,-99.99,,,0.01,504.390015,,2013-05-26 20:41:00,
2013-05-26 13:52:00,62.0,53.0,30.07,WSW,246,5.0,13.0,72,-99.99,,,0.01,504.390015,,2013-05-26 20:52:00,
2013-05-26 14:01:00,62.0,53.0,30.07,WSW,246,5.0,13.0,72,-99.99,,,0.01,504.390015,,2013-05-26 21:01:00,
2013-05-26 14:11:00,62.0,53.0,30.07,WSW,246,5.0,13.0,72,-99.99,,,0.01,504.390015,,2013-05-26 21:11:00,
2013-05-26 14:43:00,59.0,51.0,30.07,WSW,258,7.0,14.0,74,-99.99,,,0.01,359.929993,,2013-05-26 21:43:00,
2013-05-26 14:53:00,59.0,51.0,30.07,WSW,258,7.0,14.0,74,-99.99,,,0.01,359.929993,,2013-05-26 21:53:00,
2013-05-26 15:02:00,59.0,51.0,30.07,WSW,258,7.0,14.0,74,-99.99,,,0.01,359.929993,,2013-05-26 22:02:00,
2013-05-26 15:12:00,59.0,51.0,-100.00,WSW,258,7.0,14.0,74,-99.99,,,0.01,359.929993,,2013-05-26 22:12:00,
2013-05-26 15:33:00,62.0,53.0,30.08,West,268,7.0,15.0,74,-99.99,,,0.01,560.409973,,2013-05-26 22:33:00,
2013-05-26 15:42:00,62.0,53.0,-100.00,West,268,7.0,15.0,74,-99.99,,,0.01,560.409973,,2013-05-26 22:42:00,
2013-05-26 15:53:00,62.0,53.0,30.08,West,268,7.0,15.0,74,-99.99,,,0.01,560.409973,,2013-05-26 22:53:00,
2013-05-26 16:02:00,62.0,53.0,30.08,West,268,7.0,15.0,74,-99.99,,,0.01,560.409973,,2013-05-26 23:02:00,
2013-05-26 16:11:00,62.0,53.0,30.08,West,268,7.0,15.0,74,-99.99,,,0.01,560.409973,,2013-05-26 23:11:00,
2013-05-26 16:32:00,63.0,54.0,30.07,WSW,248,4.0,10.0,72,-99.99,,,0.01,536.940002,,2013-05-26 23:32:00,
2013-05-26 16:43:00,63.0,54.0,30.07,WSW,248,4.0,10.0,72,-99.99,,,0.01,536.940002,,2013-05-26 23:43:00,
2013-05-26 16:52:00,63.0,54.0,30.07,WSW,248,4.0,10.0,72,-99.99,,,0.01,536.940002,,2013-05-26 23:52:00,
2013-05-26 17:02:00,63.0,54.0,30.07,WSW,248,4.0,10.0,72,-99.99,,,0.01,536.940002,,2013-05-27 00:02:00,
2013-05-26 17:11:00,63.0,54.0,30.07,WSW,248,4.0,10.0,72,-99.99,,,0.01,536.940002,,2013-05-27 00:11:00,
2013-05-26 18:31:00,62.0,51.0,30.06,West,270,6.0,13.0,67,-99.99,,,0.01,251.729996,,2013-05-27 01:31:00,
2013-05-26 18:42:00,62.0,51.0,30.06,West,270,6.0,13.0,67,-99.99,,,0.01,251.729996,,2013-05-27 01:42:00,
2013-05-26 18:52:00,62.0,51.0,30.06,West,270,6.0,13.0,67,-99.99,,,0.01,251.729996,,2013-05-27 01:52:00,
2013-05-26 19:01:00,62.0,51.0,30.06,West,270,6.0,13.0,67,-99.99,,,0.01,251.729996,,2013-05-27 02:01:00,
2013-05-26 19:11:00,62.0,51.0,30.06,West,270,6.0,13.0,67,-99.99,,,0.01,251.729996,,2013-05-27 02:11:00,
2013-05-26 19:32:00,61.0,51.0,30.07,West,266,4.0,8.0,70,-99.99,,,0.01,41.840000,,2013-05-27 02:32:00,
2013-05-26 19:42:00,61.0,51.0,30.07,West,266,4.0,8.0,70,-99.99,,,0.01,41.840000,,2013-05-27 02:42:00,
2013-05-26 19:52:00,61.0,51.0,30.07,West,266,4.0,8.0,70,-99.99,,,0.01,41.840000,,2013-05-27 02:52:00,
2013-05-26 20:02:00,61.0,51.0,30.07,West,266,4.0,8.0,70,-99.99,,,0.01,41.840000,,2013-05-27 03:02:00,
2013-05-26 20:11:00,61.0,51.0,30.07,West,266,4.0,8.0,70,-99.99,,,0.01,41.840000,,2013-05-27 03:11:00,
2013-05-26 20:42:00,60.0,51.0,30.06,West,280,5.0,8.0,73,-99.99,,,0.01,12.440000,,2013-05-27 03:42:00,
2013-05-26 20:53:00,60.0,51.0,30.06,West,280,5.0,8.0,73,-99.99,,,0.01,12.440000,,2013-05-27 03:53:00,
2013-05-26 21:02:00,60.0,51.0,30.06,West,280,5.0,8.0,73,-99.99,,,0.01,12.440000,,2013-05-27 04:02:00,
2013-05-26 21:12:00,60.0,51.0,30.06,West,280,5.0,8.0,73,-99.99,,,0.01,12.440000,,2013-05-27 04:12:00,
2013-05-26 21:42:00,59.0,51.0,30.08,West,276,4.0,7.0,75,-99.99,,,0.01,0.120000,,2013-05-27 04:42:00,
2013-05-26 21:52:00,59.0,51.0,30.08,West,276,4.0,7.0,75,-99.99,,,0.01,0.120000,,2013-05-27 04:52:00,
2013-05-26 22:02:00,59.0,51.0,30.08,West,276,4.0,7.0,75,-99.99,,,0.01,0.120000,,2013-05-27 05:02:00,
2013-05-26 22:12:00,59.0,51.0,30.08,West,276,4.0,7.0,75,-99.99,,,0.01,0.120000,,2013-05-27 05:12:00,
2013-05-26 22:32:00,58.0,51.0,30.09,West,270,4.0,7.0,76,-99.99,,,0.01,0.000000,,2013-05-27 05:32:00,
2013-05-26 22:42:00,58.0,51.0,30.09,West,270,4.0,7.0,76,-99.99,,,0.01,0.000000,,2013-05-27 05:42:00,
2013-05-26 22:52:00,58.0,51.0,30.09,West,270,4.0,7.0,76,-99.99,,,0.01,0.000000,,2013-05-27 05:52:00,
2013-05-26 23:01:00,58.0,51.0,30.09,West,270,4.0,7.0,76,-99.99,,,0.01,0.000000,,2013-05-27 06:01:00,
2013-05-26 23:11:00,58.0,51.0,30.09,West,270,4.0,7.0,76,-99.99,,,0.01,0.000000,,2013-05-27 06:11:00,
2013-05-26 23:42:00,58.0,49.0,30.08,WSW,254,4.0,9.0,74,-99.99,,,0.01,0.000000,,2013-05-27 06:42:00,
2013-05-26 23:52:00,58.0,49.0,30.08,WSW,254,4.0,9.0,74,-99.99,,,0.01,0.000000,,2013-05-27 06:52:00,